createdAt,value
2023-12-08T00:01:10.855Z,7.38
2023-12-08T00:03:37.508Z,7.50
2023-12-08T00:06:04.112Z,7.60
2023-12-08T00:08:31.190Z,7.20
2023-12-08T00:10:57.595Z,8.13
2023-12-08T00:13:26.800Z,7.95
2023-12-08T00:15:53.270Z,7.65
2023-12-08T00:18:19.762Z,7.50
2023-12-08T00:20:46.203Z,7.82
2023-12-08T00:23:12.747Z,7.25
2023-12-08T00:25:39.200Z,7.78
2023-12-08T00:28:09.583Z,7.93
2023-12-08T00:30:36.395Z,8.60
2023-12-08T00:33:05.766Z,7.63
2023-12-08T00:35:33.618Z,8.10
2023-12-08T00:38:00.224Z,8.63
2023-12-08T00:40:27.040Z,7.65
2023-12-08T00:42:53.512Z,8.20
2023-12-08T00:45:20.572Z,8.05
2023-12-08T00:47:47.247Z,7.90
2023-12-08T00:50:13.751Z,6.93
2023-12-08T00:52:40.256Z,7.90
2023-12-08T00:55:09.270Z,7.65
2023-12-08T00:57:35.752Z,8.20
2023-12-08T01:00:02.329Z,8.07
2023-12-08T01:02:30.073Z,8.00
2023-12-08T01:04:58.416Z,7.88
2023-12-08T01:07:25.344Z,7.72
2023-12-08T01:09:51.998Z,7.97
2023-12-08T01:12:18.477Z,8.10
2023-12-08T01:14:44.889Z,8.45
2023-12-08T01:17:11.437Z,7.30
2023-12-08T01:19:38.021Z,7.72
2023-12-08T01:22:04.698Z,7.55
2023-12-08T01:24:31.084Z,7.00
2023-12-08T01:26:57.562Z,8.77
2023-12-08T01:29:24.092Z,9.20
2023-12-08T01:31:50.525Z,7.82
2023-12-08T01:34:17.463Z,8.70
2023-12-08T01:36:44.627Z,6.90
2023-12-08T01:39:11.915Z,7.63
2023-12-08T01:41:38.600Z,7.65
2023-12-08T01:44:05.279Z,6.78
2023-12-08T01:46:31.810Z,7.18
2023-12-08T01:49:02.441Z,7.10
2023-12-08T01:51:29.122Z,6.72
2023-12-08T01:53:56.156Z,7.85
2023-12-08T01:56:23.198Z,7.70
2023-12-08T01:58:49.815Z,7.07
2023-12-08T02:01:16.746Z,6.65
2023-12-08T02:03:45.758Z,6.93
2023-12-08T02:06:12.472Z,7.95
2023-12-08T02:08:39.168Z,6.82
2023-12-08T02:11:07.004Z,6.80
2023-12-08T02:13:34.157Z,6.13
2023-12-08T02:16:10.789Z,7.22
2023-12-08T02:18:39.716Z,7.45
2023-12-08T02:21:09.808Z,6.90
2023-12-08T02:23:37.090Z,7.05
2023-12-08T02:26:08.240Z,7.47
2023-12-08T02:28:34.689Z,6.65
2023-12-08T02:31:04.090Z,7.30
2023-12-08T02:36:01.162Z,7.00
2023-12-08T02:40:55.882Z,6.93
2023-12-08T02:43:22.318Z,6.95
2023-12-08T02:45:51.742Z,6.90
2023-12-08T02:48:21.143Z,7.03
2023-12-08T02:50:47.725Z,6.85
2023-12-08T02:53:14.213Z,6.57
2023-12-08T02:55:40.655Z,6.75
2023-12-08T02:58:07.171Z,6.50
2023-12-08T03:00:33.653Z,6.78
2023-12-08T03:03:00.348Z,7.22
2023-12-08T03:05:29.872Z,6.55
2023-12-08T03:07:56.307Z,7.10
2023-12-08T03:10:22.739Z,6.38
2023-12-08T03:12:49.520Z,6.78
2023-12-08T03:15:16.191Z,6.72
2023-12-08T03:17:45.788Z,6.78
2023-12-08T03:20:12.461Z,7.43
2023-12-08T03:22:41.779Z,6.57
2023-12-08T03:25:08.648Z,6.63
2023-12-08T03:27:35.150Z,7.25
2023-12-08T03:30:01.791Z,6.30
2023-12-08T03:32:28.359Z,5.82
2023-12-08T03:34:54.777Z,6.97
2023-12-08T03:37:21.285Z,6.55
2023-12-08T03:39:47.909Z,6.15
2023-12-08T03:42:14.503Z,6.25
2023-12-08T03:44:41.160Z,6.80
2023-12-08T03:47:07.620Z,6.75
2023-12-08T03:49:34.220Z,6.20
2023-12-08T03:52:00.738Z,7.00
2023-12-08T03:54:27.652Z,6.82
2023-12-08T03:56:54.135Z,6.22
2023-12-08T03:59:20.618Z,6.57
2023-12-08T04:01:46.991Z,6.95
2023-12-08T04:04:25.341Z,6.80
2023-12-08T04:06:53.646Z,6.63
2023-12-08T04:09:23.607Z,7.00
2023-12-08T04:11:50.790Z,7.00
2023-12-08T04:14:17.258Z,7.07
2023-12-08T04:16:51.245Z,7.38
2023-12-08T04:19:19.731Z,6.70
2023-12-08T04:21:46.545Z,8.00
2023-12-08T04:24:13.346Z,6.72
2023-12-08T04:26:46.120Z,7.25
2023-12-08T04:29:12.856Z,7.55
2023-12-08T04:31:39.498Z,7.13
2023-12-08T04:34:06.123Z,7.10
2023-12-08T04:36:32.600Z,6.72
2023-12-08T04:38:59.138Z,7.43
2023-12-08T04:41:25.758Z,7.10
2023-12-08T04:43:52.353Z,7.45
2023-12-08T04:46:21.311Z,7.80
2023-12-08T04:48:48.393Z,7.80
2023-12-08T04:51:15.065Z,7.25
2023-12-08T04:53:41.643Z,7.55
2023-12-08T04:56:08.791Z,7.20
2023-12-08T04:58:35.189Z,7.15
2023-12-08T05:01:01.655Z,7.10
2023-12-08T05:03:28.114Z,6.90
2023-12-08T05:05:54.673Z,8.10
2023-12-08T05:08:21.116Z,8.30
2023-12-08T05:10:47.525Z,7.45
2023-12-08T05:13:14.000Z,7.95
2023-12-08T05:15:40.448Z,7.22
2023-12-08T05:18:07.180Z,7.93
2023-12-08T05:20:34.914Z,7.10
2023-12-08T05:23:01.382Z,7.88
2023-12-08T05:25:27.848Z,8.02
2023-12-08T05:27:54.266Z,8.00
2023-12-08T05:30:20.757Z,7.40
2023-12-08T05:32:47.521Z,8.07
2023-12-08T05:35:14.678Z,7.85
2023-12-08T05:37:41.073Z,8.32
2023-12-08T05:40:08.426Z,7.55
2023-12-08T05:42:34.787Z,7.40
2023-12-08T05:45:01.418Z,8.13
2023-12-08T05:47:28.050Z,7.53
2023-12-08T05:49:54.544Z,8.30
2023-12-08T05:52:20.993Z,8.20
2023-12-08T05:54:47.491Z,7.75
2023-12-08T05:57:17.389Z,7.60
2023-12-08T05:59:43.922Z,7.72
2023-12-08T06:02:10.581Z,7.07
2023-12-08T06:04:37.022Z,7.35
2023-12-08T06:07:05.101Z,8.05
2023-12-08T06:09:31.670Z,8.65
2023-12-08T06:11:58.139Z,8.02
2023-12-08T06:14:24.600Z,9.07
2023-12-08T06:16:51.074Z,7.78
2023-12-08T06:19:18.156Z,14.43
2023-12-08T06:21:44.684Z,8.23
2023-12-08T06:24:11.279Z,8.85
2023-12-08T06:26:39.402Z,9.13
2023-12-08T06:29:05.954Z,7.97
2023-12-08T06:31:32.519Z,9.00
2023-12-08T06:34:09.364Z,8.23
2023-12-08T06:37:02.936Z,7.63
2023-12-08T06:39:32.117Z,9.25
2023-12-08T06:41:58.719Z,9.57
2023-12-08T06:44:28.907Z,8.90
2023-12-08T06:46:55.366Z,8.50
2023-12-08T06:49:21.906Z,8.52
2023-12-08T06:51:48.541Z,8.40
2023-12-08T06:54:14.985Z,7.82
2023-12-08T06:56:43.287Z,8.30
2023-12-08T06:59:10.221Z,8.77
2023-12-08T07:01:37.648Z,8.27
2023-12-08T07:04:09.669Z,8.68
2023-12-08T07:06:36.304Z,8.40
2023-12-08T07:09:06.097Z,8.77
2023-12-08T07:11:35.163Z,7.57
2023-12-08T07:14:01.662Z,8.25
2023-12-08T07:16:28.614Z,8.07
2023-12-08T07:18:57.253Z,7.63
2023-12-08T07:21:24.804Z,9.07
2023-12-08T07:23:51.354Z,9.15
2023-12-08T07:26:17.920Z,8.52
2023-12-08T07:28:44.320Z,8.75
2023-12-08T07:31:10.997Z,8.30
2023-12-08T07:33:37.582Z,8.82
2023-12-08T07:36:05.791Z,8.93
2023-12-08T07:38:32.222Z,9.07
2023-12-08T07:40:59.691Z,8.20
2023-12-08T07:43:26.117Z,8.23
2023-12-08T07:45:55.186Z,8.70
2023-12-08T07:48:24.124Z,8.00
2023-12-08T07:50:50.884Z,9.00
2023-12-08T07:53:17.476Z,8.57
2023-12-08T07:55:43.979Z,9.50
2023-12-08T07:58:10.477Z,9.35
2023-12-08T08:00:38.512Z,9.65
2023-12-08T08:03:07.876Z,8.65
2023-12-08T08:08:00.892Z,8.82
2023-12-08T08:10:28.244Z,8.88
2023-12-08T08:12:57.670Z,8.07
2023-12-08T08:15:24.166Z,8.48
2023-12-08T08:17:50.947Z,8.95
2023-12-08T08:20:17.456Z,9.43
2023-12-08T08:22:54.439Z,8.98
2023-12-08T08:25:21.081Z,8.98
2023-12-08T08:27:47.623Z,8.88
2023-12-08T08:30:14.293Z,8.77
2023-12-08T08:32:40.798Z,8.70
2023-12-08T08:35:09.311Z,8.40
2023-12-08T08:37:35.860Z,8.80
2023-12-08T08:40:03.581Z,8.35
2023-12-08T08:42:30.064Z,8.25
2023-12-08T08:44:56.599Z,9.30
2023-12-08T08:47:23.166Z,8.63
2023-12-08T08:49:50.490Z,7.88
2023-12-08T08:52:17.153Z,7.78
2023-12-08T08:54:43.747Z,7.75
2023-12-08T08:57:12.673Z,7.90
2023-12-08T08:59:41.662Z,8.27
2023-12-08T09:02:08.567Z,8.05
2023-12-08T09:04:35.062Z,7.68
2023-12-08T09:07:01.713Z,7.55
2023-12-08T09:09:30.710Z,8.13
2023-12-08T09:11:57.346Z,7.55
2023-12-08T09:14:23.827Z,8.07
2023-12-08T09:16:50.308Z,7.75
2023-12-08T09:19:16.846Z,8.00
2023-12-08T09:21:52.119Z,8.60
2023-12-08T09:24:24.047Z,8.73
2023-12-08T09:26:50.573Z,7.78
2023-12-08T09:29:19.739Z,7.97
2023-12-08T09:31:46.493Z,7.32
2023-12-08T09:34:13.192Z,8.48
2023-12-08T09:36:39.877Z,9.48
2023-12-08T09:39:06.519Z,9.13
2023-12-08T09:41:33.129Z,8.68
2023-12-08T09:44:05.884Z,9.70
2023-12-08T09:46:34.258Z,8.60
2023-12-08T09:49:16.885Z,8.43
2023-12-08T09:51:47.531Z,8.88
2023-12-08T09:54:13.976Z,9.02
2023-12-08T09:56:40.504Z,8.93
2023-12-08T09:59:11.495Z,9.63
2023-12-08T10:01:38.103Z,8.48
2023-12-08T10:04:05.511Z,9.65
2023-12-08T10:06:36.314Z,9.02
2023-12-08T10:09:07.663Z,9.00
2023-12-08T10:11:34.819Z,8.63
2023-12-08T10:14:01.734Z,9.55
2023-12-08T10:16:31.319Z,8.90
2023-12-08T10:19:08.747Z,8.80
2023-12-08T10:21:38.484Z,9.85
2023-12-08T10:24:06.037Z,8.77
2023-12-08T10:26:36.083Z,9.30
2023-12-08T10:29:02.580Z,9.60
2023-12-08T10:31:29.318Z,9.30
2023-12-08T10:33:57.051Z,8.98
2023-12-08T10:36:26.632Z,9.57
2023-12-08T10:38:56.242Z,9.25
2023-12-08T10:41:23.482Z,9.55
2023-12-08T10:43:50.063Z,9.05
2023-12-08T10:46:36.097Z,10.05
2023-12-08T10:49:05.148Z,9.30
2023-12-08T10:51:34.408Z,9.52
2023-12-08T10:56:27.453Z,9.50
2023-12-08T10:59:04.119Z,10.18
2023-12-08T11:01:34.359Z,9.88
2023-12-08T11:04:06.877Z,9.75
2023-12-08T11:06:43.987Z,10.32
2023-12-08T11:09:13.512Z,9.73
2023-12-08T11:11:51.036Z,10.43
2023-12-08T11:14:29.870Z,10.63
2023-12-08T11:17:01.545Z,10.85
2023-12-08T11:19:30.672Z,11.70
2023-12-08T11:21:57.602Z,10.65
2023-12-08T11:24:26.378Z,12.57
2023-12-08T11:27:11.372Z,12.25
2023-12-08T11:29:55.939Z,12.63
2023-12-08T11:32:36.969Z,11.38
2023-12-08T11:35:11.168Z,11.35
2023-12-08T11:37:39.138Z,10.25
2023-12-08T11:40:12.733Z,10.75
2023-12-08T11:42:44.328Z,9.45
2023-12-08T11:45:14.817Z,10.10
2023-12-08T11:47:44.513Z,9.38
2023-12-08T11:50:12.886Z,11.02
2023-12-08T11:52:42.417Z,11.07
2023-12-08T11:55:31.263Z,10.85
2023-12-08T11:58:04.880Z,10.45
2023-12-08T12:00:34.326Z,10.00
2023-12-08T12:03:03.398Z,10.60
2023-12-08T12:05:30.291Z,11.57
2023-12-08T12:07:58.656Z,13.88
2023-12-08T12:10:31.767Z,16.30
2023-12-08T12:13:04.267Z,14.93
2023-12-08T12:15:32.264Z,11.40
2023-12-08T12:18:00.051Z,16.63
2023-12-08T12:20:29.732Z,14.02
2023-12-08T12:22:57.142Z,13.32
2023-12-08T12:25:26.552Z,11.48
2023-12-08T12:27:54.849Z,10.98
2023-12-08T12:30:21.877Z,11.05
2023-12-08T12:32:50.341Z,10.95
2023-12-08T12:35:17.747Z,11.70
2023-12-08T12:37:44.774Z,11.70
2023-12-08T12:40:12.367Z,10.60
2023-12-08T12:42:53.521Z,11.07
2023-12-08T12:45:32.421Z,11.13
2023-12-08T12:48:01.092Z,10.60
2023-12-08T12:50:33.673Z,11.25
2023-12-08T12:53:25.674Z,12.05
2023-12-08T12:55:52.975Z,11.27
2023-12-08T13:01:22.631Z,11.93
2023-12-08T13:03:49.645Z,11.40
2023-12-08T13:06:37.703Z,11.57
2023-12-08T13:09:06.619Z,12.02
2023-12-08T13:11:38.724Z,10.73
2023-12-08T13:14:05.297Z,10.02
2023-12-08T13:16:33.874Z,12.07
2023-12-08T13:19:01.221Z,11.50
2023-12-08T13:21:28.110Z,10.88
2023-12-08T13:23:54.734Z,11.38
2023-12-08T13:26:21.243Z,11.38
2023-12-08T13:28:47.634Z,11.15
2023-12-08T13:31:32.221Z,11.45
2023-12-08T13:34:02.558Z,9.70
2023-12-08T13:36:29.673Z,11.27
2023-12-08T13:38:56.322Z,10.75
2023-12-08T13:41:26.290Z,10.40
2023-12-08T13:43:52.676Z,10.05
2023-12-08T13:46:20.718Z,9.80
2023-12-08T13:48:57.679Z,9.73
2023-12-08T13:51:38.392Z,9.52
2023-12-08T13:54:09.337Z,9.90
2023-12-08T13:56:35.868Z,10.38
2023-12-08T13:59:02.281Z,9.52
2023-12-08T14:01:29.377Z,10.70
2023-12-08T14:03:56.419Z,10.63
2023-12-08T14:06:24.637Z,10.38
2023-12-08T14:08:54.199Z,10.57
2023-12-08T14:11:25.972Z,11.07
2023-12-08T14:13:55.704Z,11.05
2023-12-08T14:16:22.223Z,10.48
2023-12-08T14:18:48.843Z,10.95
2023-12-08T14:21:16.434Z,11.20
2023-12-08T14:23:43.744Z,11.52
2023-12-08T14:26:12.960Z,12.18
2023-12-08T14:28:39.674Z,12.77
2023-12-08T14:31:09.133Z,12.40
2023-12-08T14:33:35.670Z,10.93
2023-12-08T14:36:02.781Z,13.45
2023-12-08T14:38:29.533Z,11.38
2023-12-08T14:40:56.568Z,11.77
2023-12-08T14:43:25.033Z,10.80
2023-12-08T14:45:52.695Z,12.00
2023-12-08T14:48:23.597Z,11.70
2023-12-08T14:50:50.703Z,12.40
2023-12-08T14:53:17.272Z,12.32
2023-12-08T14:55:58.797Z,12.18
2023-12-08T14:58:27.579Z,11.57
2023-12-08T15:00:54.293Z,12.57
2023-12-08T15:03:20.988Z,10.85
2023-12-08T15:05:49.560Z,11.20
2023-12-08T15:08:17.373Z,10.57
2023-12-08T15:10:43.919Z,10.90
2023-12-08T15:13:13.843Z,10.65
2023-12-08T15:15:46.025Z,10.07
2023-12-08T15:18:16.101Z,10.80
2023-12-08T15:20:50.579Z,10.45
2023-12-08T15:23:19.008Z,9.95
2023-12-08T15:25:45.549Z,9.32
2023-12-08T15:28:12.890Z,11.07
2023-12-08T15:30:39.409Z,10.80
2023-12-08T15:33:12.421Z,10.52
2023-12-08T15:35:44.423Z,11.35
2023-12-08T15:38:10.861Z,11.93
2023-12-08T15:40:37.748Z,12.77
2023-12-08T15:43:06.551Z,11.32
2023-12-08T15:45:33.127Z,11.73
2023-12-08T15:48:14.143Z,14.98
2023-12-08T15:50:46.906Z,11.10
2023-12-08T15:53:13.334Z,13.20
2023-12-08T15:55:39.780Z,12.43
2023-12-08T15:58:06.306Z,10.75
2023-12-08T16:00:35.523Z,12.27
2023-12-08T16:03:02.132Z,11.98
2023-12-08T16:05:28.899Z,11.60
2023-12-08T16:07:55.487Z,12.35
2023-12-08T16:10:21.894Z,13.80
2023-12-08T16:12:48.500Z,13.93
2023-12-08T16:15:15.043Z,14.93
2023-12-08T16:17:41.583Z,12.75
2023-12-08T16:20:09.384Z,12.70
2023-12-08T16:22:35.981Z,14.00
2023-12-08T16:25:03.350Z,15.35
2023-12-08T16:27:30.272Z,12.65
2023-12-08T16:29:57.491Z,14.60
2023-12-08T16:32:24.825Z,13.88
2023-12-08T16:35:09.986Z,13.73
2023-12-08T16:37:37.011Z,14.35
2023-12-08T16:40:04.168Z,14.05
2023-12-08T16:42:30.939Z,15.77
2023-12-08T16:45:12.212Z,13.57
2023-12-08T16:47:46.135Z,15.88
2023-12-08T16:50:12.687Z,15.68
2023-12-08T16:52:39.178Z,14.55
2023-12-08T16:55:06.604Z,20.75
2023-12-08T16:57:33.128Z,21.05
2023-12-08T16:59:59.895Z,15.82
2023-12-08T17:02:28.083Z,22.55
2023-12-08T17:04:54.698Z,32.40
2023-12-08T17:07:21.482Z,18.60
2023-12-08T17:09:47.864Z,20.02
2023-12-08T17:12:14.590Z,16.80
2023-12-08T17:14:40.990Z,15.38
2023-12-08T17:17:10.515Z,15.85
2023-12-08T17:19:43.982Z,15.88
2023-12-08T17:22:10.606Z,14.43
2023-12-08T17:24:37.020Z,14.57
2023-12-08T17:27:03.828Z,14.10
2023-12-08T17:29:30.288Z,14.73
2023-12-08T17:31:57.082Z,14.02
2023-12-08T17:37:25.877Z,15.05
2023-12-08T17:39:52.436Z,14.60
2023-12-08T17:45:35.799Z,14.15
2023-12-08T17:48:02.327Z,14.55
2023-12-08T17:50:28.804Z,24.90
2023-12-08T17:52:55.190Z,42.30
2023-12-08T17:55:21.625Z,31.88
2023-12-08T17:57:51.091Z,19.48
2023-12-08T18:00:18.292Z,15.38
2023-12-08T18:02:44.853Z,16.00
2023-12-08T18:05:14.060Z,13.70
2023-12-08T18:07:46.029Z,13.48
2023-12-08T18:10:12.575Z,13.90
2023-12-08T22:20:39.682Z,7.28
2023-12-08T23:19:18.344Z,5.82
2023-12-08T23:22:10.355Z,4.97
